sensor_id;sensor_type;location;lat;lon;timestamp;temperature;humidity
2893;DHT22;1456;51.840;12.184;2023-06-14T00:00:09;14.80;95.00
2893;DHT22;1456;51.840;12.184;2023-06-14T00:02:38;14.80;95.10
2893;DHT22;1456;51.840;12.184;2023-06-14T00:05:05;14.80;94.90
2893;DHT22;1456;51.840;12.184;2023-06-14T00:07:34;14.70;94.60
2893;DHT22;1456;51.840;12.184;2023-06-14T00:10:00;14.70;94.90
2893;DHT22;1456;51.840;12.184;2023-06-14T00:12:26;14.60;95.60
2893;DHT22;1456;51.840;12.184;2023-06-14T00:14:51;14.60;95.20
2893;DHT22;1456;51.840;12.184;2023-06-14T00:17:17;14.60;95.60
2893;DHT22;1456;51.840;12.184;2023-06-14T00:19:42;14.50;95.60
2893;DHT22;1456;51.840;12.184;2023-06-14T00:22:08;14.50;95.70
2893;DHT22;1456;51.840;12.184;2023-06-14T00:24:34;14.40;96.00
2893;DHT22;1456;51.840;12.184;2023-06-14T00:27:00;14.30;95.80
2893;DHT22;1456;51.840;12.184;2023-06-14T00:29:26;14.30;96.10
2893;DHT22;1456;51.840;12.184;2023-06-14T00:31:51;14.20;96.80
2893;DHT22;1456;51.840;12.184;2023-06-14T00:34:17;14.20;97.10
2893;DHT22;1456;51.840;12.184;2023-06-14T00:36:42;14.20;97.50
2893;DHT22;1456;51.840;12.184;2023-06-14T00:39:08;14.10;98.00
2893;DHT22;1456;51.840;12.184;2023-06-14T00:41:35;14.10;98.20
2893;DHT22;1456;51.840;12.184;2023-06-14T00:44:00;14.10;98.20
2893;DHT22;1456;51.840;12.184;2023-06-14T00:46:26;14.00;99.10
2893;DHT22;1456;51.840;12.184;2023-06-14T00:48:51;14.00;98.90
2893;DHT22;1456;51.840;12.184;2023-06-14T00:51:17;13.90;98.50
2893;DHT22;1456;51.840;12.184;2023-06-14T00:53:43;13.90;98.80
2893;DHT22;1456;51.840;12.184;2023-06-14T00:56:12;13.90;99.00
2893;DHT22;1456;51.840;12.184;2023-06-14T00:58:38;13.90;99.60
2893;DHT22;1456;51.840;12.184;2023-06-14T01:01:04;13.80;99.90
2893;DHT22;1456;51.840;12.184;2023-06-14T01:03:30;13.80;99.50
2893;DHT22;1456;51.840;12.184;2023-06-14T01:06:18;13.80;99.90
2893;DHT22;1456;51.840;12.184;2023-06-14T01:11:36;13.70;99.90
2893;DHT22;1456;51.840;12.184;2023-06-14T01:14:02;13.70;99.90
2893;DHT22;1456;51.840;12.184;2023-06-14T01:16:29;13.60;99.90
2893;DHT22;1456;51.840;12.184;2023-06-14T01:18:55;13.60;99.90
2893;DHT22;1456;51.840;12.184;2023-06-14T01:21:22;13.60;99.90
2893;DHT22;1456;51.840;12.184;2023-06-14T01:23:47;13.60;99.90
2893;DHT22;1456;51.840;12.184;2023-06-14T01:26:24;13.50;99.90
2893;DHT22;1456;51.840;12.184;2023-06-14T01:28:51;13.40;99.90
2893;DHT22;1456;51.840;12.184;2023-06-14T01:31:19;13.40;99.90
2893;DHT22;1456;51.840;12.184;2023-06-14T01:33:47;13.40;99.90
2893;DHT22;1456;51.840;12.184;2023-06-14T01:36:13;13.40;99.90
2893;DHT22;1456;51.840;12.184;2023-06-14T01:38:39;13.30;99.90
2893;DHT22;1456;51.840;12.184;2023-06-14T01:41:05;13.30;99.90
2893;DHT22;1456;51.840;12.184;2023-06-14T01:43:31;13.30;99.90
2893;DHT22;1456;51.840;12.184;2023-06-14T01:45:57;13.20;99.90
2893;DHT22;1456;51.840;12.184;2023-06-14T01:48:23;13.20;99.90
2893;DHT22;1456;51.840;12.184;2023-06-14T01:50:49;13.10;99.90
2893;DHT22;1456;51.840;12.184;2023-06-14T01:53:15;13.10;99.90
2893;DHT22;1456;51.840;12.184;2023-06-14T01:55:41;13.00;99.90
2893;DHT22;1456;51.840;12.184;2023-06-14T01:58:09;13.00;99.90
2893;DHT22;1456;51.840;12.184;2023-06-14T02:00:35;13.00;99.90
2893;DHT22;1456;51.840;12.184;2023-06-14T02:03:01;13.00;99.90
2893;DHT22;1456;51.840;12.184;2023-06-14T02:05:26;13.00;99.90
2893;DHT22;1456;51.840;12.184;2023-06-14T02:07:52;12.90;99.90
2893;DHT22;1456;51.840;12.184;2023-06-14T02:10:18;12.90;99.90
2893;DHT22;1456;51.840;12.184;2023-06-14T02:12:44;12.90;99.90
2893;DHT22;1456;51.840;12.184;2023-06-14T02:15:10;12.80;99.90
2893;DHT22;1456;51.840;12.184;2023-06-14T02:17:45;12.80;99.90
2893;DHT22;1456;51.840;12.184;2023-06-14T02:20:13;12.80;99.90
2893;DHT22;1456;51.840;12.184;2023-06-14T02:22:38;12.80;99.90
2893;DHT22;1456;51.840;12.184;2023-06-14T02:25:04;12.70;99.90
2893;DHT22;1456;51.840;12.184;2023-06-14T02:27:30;12.70;99.90
2893;DHT22;1456;51.840;12.184;2023-06-14T02:29:55;12.70;99.90
2893;DHT22;1456;51.840;12.184;2023-06-14T02:32:22;12.70;99.90
2893;DHT22;1456;51.840;12.184;2023-06-14T02:34:48;12.70;99.90
2893;DHT22;1456;51.840;12.184;2023-06-14T02:37:15;12.60;99.90
2893;DHT22;1456;51.840;12.184;2023-06-14T02:39:41;12.60;99.90
2893;DHT22;1456;51.840;12.184;2023-06-14T02:42:07;12.50;99.90
2893;DHT22;1456;51.840;12.184;2023-06-14T02:44:32;12.50;99.90
2893;DHT22;1456;51.840;12.184;2023-06-14T02:46:58;12.50;99.90
2893;DHT22;1456;51.840;12.184;2023-06-14T02:49:25;12.40;99.90
2893;DHT22;1456;51.840;12.184;2023-06-14T02:51:51;12.40;99.90
2893;DHT22;1456;51.840;12.184;2023-06-14T02:54:17;12.40;99.90
2893;DHT22;1456;51.840;12.184;2023-06-14T02:56:43;12.40;99.90
2893;DHT22;1456;51.840;12.184;2023-06-14T02:59:09;12.40;99.90
2893;DHT22;1456;51.840;12.184;2023-06-14T03:01:34;12.40;99.90
2893;DHT22;1456;51.840;12.184;2023-06-14T03:04:03;12.30;99.90
2893;DHT22;1456;51.840;12.184;2023-06-14T03:06:29;12.30;99.90
2893;DHT22;1456;51.840;12.184;2023-06-14T03:08:56;12.30;99.90
2893;DHT22;1456;51.840;12.184;2023-06-14T03:11:25;12.30;99.90
2893;DHT22;1456;51.840;12.184;2023-06-14T03:13:51;12.40;99.90
2893;DHT22;1456;51.840;12.184;2023-06-14T03:16:17;12.40;99.90
2893;DHT22;1456;51.840;12.184;2023-06-14T03:18:45;12.30;99.90
2893;DHT22;1456;51.840;12.184;2023-06-14T03:21:10;12.30;99.90
2893;DHT22;1456;51.840;12.184;2023-06-14T03:23:36;12.30;99.90
2893;DHT22;1456;51.840;12.184;2023-06-14T03:26:01;12.30;99.90
2893;DHT22;1456;51.840;12.184;2023-06-14T03:28:27;12.30;99.90
2893;DHT22;1456;51.840;12.184;2023-06-14T03:30:52;12.30;99.90
2893;DHT22;1456;51.840;12.184;2023-06-14T03:33:18;12.30;99.90
2893;DHT22;1456;51.840;12.184;2023-06-14T03:35:45;12.30;99.90
2893;DHT22;1456;51.840;12.184;2023-06-14T03:38:11;12.30;99.90
2893;DHT22;1456;51.840;12.184;2023-06-14T03:40:36;12.30;99.90
2893;DHT22;1456;51.840;12.184;2023-06-14T03:43:02;12.40;99.90
2893;DHT22;1456;51.840;12.184;2023-06-14T03:45:27;12.50;99.90
2893;DHT22;1456;51.840;12.184;2023-06-14T03:47:53;12.60;99.90
2893;DHT22;1456;51.840;12.184;2023-06-14T03:50:19;12.60;99.90
2893;DHT22;1456;51.840;12.184;2023-06-14T03:52:46;12.70;99.90
2893;DHT22;1456;51.840;12.184;2023-06-14T03:55:14;12.80;99.90
2893;DHT22;1456;51.840;12.184;2023-06-14T03:57:41;12.80;99.90
2893;DHT22;1456;51.840;12.184;2023-06-14T04:00:08;12.80;99.90
2893;DHT22;1456;51.840;12.184;2023-06-14T04:02:33;12.90;99.90
2893;DHT22;1456;51.840;12.184;2023-06-14T04:04:59;13.00;99.90
2893;DHT22;1456;51.840;12.184;2023-06-14T04:07:25;13.10;99.90
2893;DHT22;1456;51.840;12.184;2023-06-14T04:09:54;13.20;99.90
2893;DHT22;1456;51.840;12.184;2023-06-14T04:12:20;13.30;99.90
2893;DHT22;1456;51.840;12.184;2023-06-14T04:14:45;13.30;99.90
2893;DHT22;1456;51.840;12.184;2023-06-14T04:17:11;13.40;99.90
2893;DHT22;1456;51.840;12.184;2023-06-14T04:19:37;13.50;99.90
2893;DHT22;1456;51.840;12.184;2023-06-14T04:22:03;13.60;99.90
2893;DHT22;1456;51.840;12.184;2023-06-14T04:24:28;13.60;99.90
2893;DHT22;1456;51.840;12.184;2023-06-14T04:26:57;13.70;99.90
2893;DHT22;1456;51.840;12.184;2023-06-14T04:29:24;13.80;99.90
2893;DHT22;1456;51.840;12.184;2023-06-14T04:31:53;13.80;99.90
2893;DHT22;1456;51.840;12.184;2023-06-14T04:34:19;13.90;99.90
2893;DHT22;1456;51.840;12.184;2023-06-14T04:36:44;13.90;99.90
2893;DHT22;1456;51.840;12.184;2023-06-14T04:39:18;14.00;99.90
2893;DHT22;1456;51.840;12.184;2023-06-14T04:41:44;14.20;99.90
2893;DHT22;1456;51.840;12.184;2023-06-14T04:44:10;14.30;99.90
2893;DHT22;1456;51.840;12.184;2023-06-14T04:46:36;14.40;99.90
2893;DHT22;1456;51.840;12.184;2023-06-14T04:49:12;14.50;99.90
2893;DHT22;1456;51.840;12.184;2023-06-14T04:51:39;14.60;99.90
2893;DHT22;1456;51.840;12.184;2023-06-14T04:54:05;14.70;99.90
2893;DHT22;1456;51.840;12.184;2023-06-14T04:56:38;14.90;99.90
2893;DHT22;1456;51.840;12.184;2023-06-14T04:59:03;15.10;99.90
2893;DHT22;1456;51.840;12.184;2023-06-14T05:01:32;15.20;99.90
2893;DHT22;1456;51.840;12.184;2023-06-14T05:03:58;15.40;99.90
2893;DHT22;1456;51.840;12.184;2023-06-14T05:06:24;15.50;99.90
2893;DHT22;1456;51.840;12.184;2023-06-14T05:08:49;15.70;99.90
2893;DHT22;1456;51.840;12.184;2023-06-14T05:11:15;15.70;99.90
2893;DHT22;1456;51.840;12.184;2023-06-14T05:13:42;15.80;99.90
2893;DHT22;1456;51.840;12.184;2023-06-14T05:16:08;15.80;99.90
2893;DHT22;1456;51.840;12.184;2023-06-14T05:18:34;16.00;99.90
2893;DHT22;1456;51.840;12.184;2023-06-14T05:21:01;16.20;99.90
2893;DHT22;1456;51.840;12.184;2023-06-14T05:23:26;16.40;99.90
2893;DHT22;1456;51.840;12.184;2023-06-14T05:25:52;16.50;99.90
2893;DHT22;1456;51.840;12.184;2023-06-14T05:28:18;16.60;99.90
2893;DHT22;1456;51.840;12.184;2023-06-14T05:30:43;16.80;99.90
2893;DHT22;1456;51.840;12.184;2023-06-14T05:33:09;16.90;99.90
2893;DHT22;1456;51.840;12.184;2023-06-14T05:35:35;16.90;99.20
2893;DHT22;1456;51.840;12.184;2023-06-14T05:38:00;17.00;99.90
2893;DHT22;1456;51.840;12.184;2023-06-14T05:40:26;17.00;99.70
2893;DHT22;1456;51.840;12.184;2023-06-14T05:42:52;17.20;99.90
2893;DHT22;1456;51.840;12.184;2023-06-14T05:45:17;17.30;99.90
2893;DHT22;1456;51.840;12.184;2023-06-14T05:47:43;17.50;98.90
2893;DHT22;1456;51.840;12.184;2023-06-14T05:50:09;17.50;98.50
2893;DHT22;1456;51.840;12.184;2023-06-14T05:52:34;17.70;99.00
2893;DHT22;1456;51.840;12.184;2023-06-14T05:55:01;17.80;98.00
2893;DHT22;1456;51.840;12.184;2023-06-14T05:57:26;17.90;99.20
2893;DHT22;1456;51.840;12.184;2023-06-14T05:59:52;18.00;97.40
2893;DHT22;1456;51.840;12.184;2023-06-14T06:02:17;18.20;97.80
2893;DHT22;1456;51.840;12.184;2023-06-14T06:04:43;18.30;97.90
2893;DHT22;1456;51.840;12.184;2023-06-14T06:07:08;18.40;97.00
2893;DHT22;1456;51.840;12.184;2023-06-14T06:09:34;18.50;97.70
2893;DHT22;1456;51.840;12.184;2023-06-14T06:12:00;18.70;97.00
2893;DHT22;1456;51.840;12.184;2023-06-14T06:14:25;18.70;96.30
2893;DHT22;1456;51.840;12.184;2023-06-14T06:16:51;18.90;97.00
2893;DHT22;1456;51.840;12.184;2023-06-14T06:19:18;18.90;95.40
2893;DHT22;1456;51.840;12.184;2023-06-14T06:21:45;19.00;95.40
2893;DHT22;1456;51.840;12.184;2023-06-14T06:24:10;19.00;95.30
2893;DHT22;1456;51.840;12.184;2023-06-14T06:26:36;19.00;94.60
2893;DHT22;1456;51.840;12.184;2023-06-14T06:29:01;19.10;94.90
2893;DHT22;1456;51.840;12.184;2023-06-14T06:31:29;19.20;94.50
2893;DHT22;1456;51.840;12.184;2023-06-14T06:33:54;19.30;94.50
2893;DHT22;1456;51.840;12.184;2023-06-14T06:36:20;19.40;93.30
2893;DHT22;1456;51.840;12.184;2023-06-14T06:38:47;19.50;94.00
2893;DHT22;1456;51.840;12.184;2023-06-14T06:41:12;19.50;93.10
2893;DHT22;1456;51.840;12.184;2023-06-14T06:43:38;19.50;92.80
2893;DHT22;1456;51.840;12.184;2023-06-14T06:46:03;19.60;94.00
2893;DHT22;1456;51.840;12.184;2023-06-14T06:48:29;19.70;92.50
2893;DHT22;1456;51.840;12.184;2023-06-14T06:50:55;19.80;93.00
2893;DHT22;1456;51.840;12.184;2023-06-14T06:53:20;19.90;93.50
2893;DHT22;1456;51.840;12.184;2023-06-14T06:55:46;20.00;92.10
2893;DHT22;1456;51.840;12.184;2023-06-14T06:58:12;20.20;91.70
2893;DHT22;1456;51.840;12.184;2023-06-14T07:00:38;20.40;91.30
2893;DHT22;1456;51.840;12.184;2023-06-14T07:03:03;20.50;93.00
2893;DHT22;1456;51.840;12.184;2023-06-14T07:05:29;20.70;91.90
2893;DHT22;1456;51.840;12.184;2023-06-14T07:07:55;20.80;91.90
2893;DHT22;1456;51.840;12.184;2023-06-14T07:10:20;20.90;91.20
2893;DHT22;1456;51.840;12.184;2023-06-14T07:12:46;21.00;90.20
2893;DHT22;1456;51.840;12.184;2023-06-14T07:15:12;21.00;88.60
2893;DHT22;1456;51.840;12.184;2023-06-14T07:17:37;21.00;88.20
2893;DHT22;1456;51.840;12.184;2023-06-14T07:20:03;21.10;90.40
2893;DHT22;1456;51.840;12.184;2023-06-14T07:22:40;21.10;90.00
2893;DHT22;1456;51.840;12.184;2023-06-14T07:25:09;21.20;89.10
2893;DHT22;1456;51.840;12.184;2023-06-14T07:27:34;21.30;90.80
2893;DHT22;1456;51.840;12.184;2023-06-14T07:30:00;21.40;87.30
2893;DHT22;1456;51.840;12.184;2023-06-14T07:32:26;21.50;88.60
2893;DHT22;1456;51.840;12.184;2023-06-14T07:34:51;21.70;90.10
2893;DHT22;1456;51.840;12.184;2023-06-14T07:37:17;22.00;90.40
2893;DHT22;1456;51.840;12.184;2023-06-14T07:39:42;22.00;88.30
2893;DHT22;1456;51.840;12.184;2023-06-14T07:42:08;21.90;83.00
2893;DHT22;1456;51.840;12.184;2023-06-14T07:44:34;21.60;85.60
2893;DHT22;1456;51.840;12.184;2023-06-14T07:46:59;21.60;82.60
2893;DHT22;1456;51.840;12.184;2023-06-14T07:49:25;21.70;83.60
2893;DHT22;1456;51.840;12.184;2023-06-14T07:51:51;21.80;81.80
2893;DHT22;1456;51.840;12.184;2023-06-14T07:54:17;22.00;82.40
2893;DHT22;1456;51.840;12.184;2023-06-14T07:56:42;22.20;84.60
2893;DHT22;1456;51.840;12.184;2023-06-14T07:59:08;22.50;85.30
2893;DHT22;1456;51.840;12.184;2023-06-14T08:01:33;22.70;82.60
2893;DHT22;1456;51.840;12.184;2023-06-14T08:03:59;22.90;80.80
2893;DHT22;1456;51.840;12.184;2023-06-14T08:06:25;22.90;79.30
2893;DHT22;1456;51.840;12.184;2023-06-14T08:08:51;22.80;79.50
2893;DHT22;1456;51.840;12.184;2023-06-14T08:11:17;22.90;79.30
2893;DHT22;1456;51.840;12.184;2023-06-14T08:13:42;23.20;78.60
2893;DHT22;1456;51.840;12.184;2023-06-14T08:16:09;23.50;78.10
2893;DHT22;1456;51.840;12.184;2023-06-14T08:18:34;23.70;73.80
2893;DHT22;1456;51.840;12.184;2023-06-14T08:21:00;23.80;76.70
2893;DHT22;1456;51.840;12.184;2023-06-14T08:23:26;23.90;75.90
2893;DHT22;1456;51.840;12.184;2023-06-14T08:25:52;23.80;74.60
2893;DHT22;1456;51.840;12.184;2023-06-14T08:28:18;23.90;71.90
2893;DHT22;1456;51.840;12.184;2023-06-14T08:30:43;24.10;74.90
2893;DHT22;1456;51.840;12.184;2023-06-14T08:33:10;24.50;74.30
2893;DHT22;1456;51.840;12.184;2023-06-14T08:35:36;24.90;68.30
2893;DHT22;1456;51.840;12.184;2023-06-14T08:38:04;25.20;68.10
2893;DHT22;1456;51.840;12.184;2023-06-14T08:40:30;25.10;71.80
2893;DHT22;1456;51.840;12.184;2023-06-14T08:42:56;25.50;72.50
2893;DHT22;1456;51.840;12.184;2023-06-14T08:45:22;25.80;69.90
2893;DHT22;1456;51.840;12.184;2023-06-14T08:47:48;25.80;67.30
2893;DHT22;1456;51.840;12.184;2023-06-14T08:50:20;25.70;65.70
2893;DHT22;1456;51.840;12.184;2023-06-14T08:52:47;25.50;65.90
2893;DHT22;1456;51.840;12.184;2023-06-14T08:55:18;25.30;66.50
2893;DHT22;1456;51.840;12.184;2023-06-14T08:57:46;25.10;68.00
2893;DHT22;1456;51.840;12.184;2023-06-14T09:00:12;25.00;65.80
2893;DHT22;1456;51.840;12.184;2023-06-14T09:02:38;24.90;67.50
2893;DHT22;1456;51.840;12.184;2023-06-14T09:05:11;24.80;67.40
2893;DHT22;1456;51.840;12.184;2023-06-14T09:07:42;24.70;65.00
2893;DHT22;1456;51.840;12.184;2023-06-14T09:10:10;24.50;67.20
2893;DHT22;1456;51.840;12.184;2023-06-14T09:12:36;24.60;70.40
2893;DHT22;1456;51.840;12.184;2023-06-14T09:15:06;24.70;69.10
2893;DHT22;1456;51.840;12.184;2023-06-14T09:17:37;24.80;69.50
2893;DHT22;1456;51.840;12.184;2023-06-14T09:20:04;24.40;68.80
2893;DHT22;1456;51.840;12.184;2023-06-14T09:22:39;24.40;69.40
2893;DHT22;1456;51.840;12.184;2023-06-14T09:25:05;24.50;66.60
2893;DHT22;1456;51.840;12.184;2023-06-14T09:27:32;24.70;65.10
2893;DHT22;1456;51.840;12.184;2023-06-14T09:29:58;25.00;65.50
2893;DHT22;1456;51.840;12.184;2023-06-14T09:32:25;25.70;65.50
2893;DHT22;1456;51.840;12.184;2023-06-14T09:34:50;26.40;63.40
2893;DHT22;1456;51.840;12.184;2023-06-14T09:37:31;27.30;64.30
2893;DHT22;1456;51.840;12.184;2023-06-14T09:39:58;27.80;61.10
2893;DHT22;1456;51.840;12.184;2023-06-14T09:42:24;27.90;59.60
2893;DHT22;1456;51.840;12.184;2023-06-14T09:44:55;28.10;59.50
2893;DHT22;1456;51.840;12.184;2023-06-14T09:47:22;28.00;59.10
2893;DHT22;1456;51.840;12.184;2023-06-14T09:49:49;27.90;60.40
2893;DHT22;1456;51.840;12.184;2023-06-14T09:52:16;28.20;62.60
2893;DHT22;1456;51.840;12.184;2023-06-14T09:54:44;28.70;60.40
2893;DHT22;1456;51.840;12.184;2023-06-14T09:57:13;29.40;62.30
2893;DHT22;1456;51.840;12.184;2023-06-14T09:59:43;29.90;57.30
2893;DHT22;1456;51.840;12.184;2023-06-14T10:02:31;30.00;59.20
2893;DHT22;1456;51.840;12.184;2023-06-14T10:05:06;30.10;57.40
2893;DHT22;1456;51.840;12.184;2023-06-14T10:07:40;30.20;57.90
2893;DHT22;1456;51.840;12.184;2023-06-14T10:10:06;30.60;58.70
2893;DHT22;1456;51.840;12.184;2023-06-14T10:12:33;31.00;56.00
2893;DHT22;1456;51.840;12.184;2023-06-14T10:14:59;30.50;68.30
2893;DHT22;1456;51.840;12.184;2023-06-14T10:20:10;29.30;60.30
2893;DHT22;1456;51.840;12.184;2023-06-14T10:22:44;29.70;58.10
2893;DHT22;1456;51.840;12.184;2023-06-14T10:25:29;30.20;57.20
2893;DHT22;1456;51.840;12.184;2023-06-14T10:28:15;30.80;59.80
2893;DHT22;1456;51.840;12.184;2023-06-14T10:31:13;30.60;56.60
2893;DHT22;1456;51.840;12.184;2023-06-14T10:33:50;29.80;54.70
2893;DHT22;1456;51.840;12.184;2023-06-14T10:39:17;28.50;57.20
2893;DHT22;1456;51.840;12.184;2023-06-14T10:41:54;28.30;57.90
2893;DHT22;1456;51.840;12.184;2023-06-14T10:46:49;27.70;58.20
2893;DHT22;1456;51.840;12.184;2023-06-14T10:49:43;27.80;58.60
2893;DHT22;1456;51.840;12.184;2023-06-14T10:52:11;28.60;58.30
2893;DHT22;1456;51.840;12.184;2023-06-14T10:55:02;30.10;58.70
2893;DHT22;1456;51.840;12.184;2023-06-14T10:57:30;30.60;54.50
2893;DHT22;1456;51.840;12.184;2023-06-14T11:00:03;31.00;54.40
2893;DHT22;1456;51.840;12.184;2023-06-14T11:05:56;30.40;54.10
2893;DHT22;1456;51.840;12.184;2023-06-14T11:11:13;31.40;54.80
2893;DHT22;1456;51.840;12.184;2023-06-14T11:13:41;32.70;53.20
2893;DHT22;1456;51.840;12.184;2023-06-14T11:16:14;34.00;52.20
2893;DHT22;1456;51.840;12.184;2023-06-14T11:18:41;34.40;52.20
2893;DHT22;1456;51.840;12.184;2023-06-14T11:21:07;34.30;48.40
2893;DHT22;1456;51.840;12.184;2023-06-14T11:23:34;33.40;47.30
2893;DHT22;1456;51.840;12.184;2023-06-14T11:26:00;32.20;48.50
2893;DHT22;1456;51.840;12.184;2023-06-14T11:28:36;30.70;49.00
2893;DHT22;1456;51.840;12.184;2023-06-14T11:31:03;29.60;51.30
2893;DHT22;1456;51.840;12.184;2023-06-14T11:33:29;28.40;51.30
2893;DHT22;1456;51.840;12.184;2023-06-14T11:35:55;27.90;53.60
2893;DHT22;1456;51.840;12.184;2023-06-14T11:38:21;27.70;52.90
2893;DHT22;1456;51.840;12.184;2023-06-14T11:40:47;27.50;52.70
2893;DHT22;1456;51.840;12.184;2023-06-14T11:43:12;27.10;54.80
2893;DHT22;1456;51.840;12.184;2023-06-14T11:45:40;27.30;53.50
2893;DHT22;1456;51.840;12.184;2023-06-14T11:48:06;27.70;54.70
2893;DHT22;1456;51.840;12.184;2023-06-14T11:50:32;28.30;53.30
2893;DHT22;1456;51.840;12.184;2023-06-14T11:53:01;28.70;53.20
2893;DHT22;1456;51.840;12.184;2023-06-14T11:55:39;28.90;52.80
2893;DHT22;1456;51.840;12.184;2023-06-14T11:58:06;28.80;52.10
2893;DHT22;1456;51.840;12.184;2023-06-14T12:00:32;28.80;52.50
2893;DHT22;1456;51.840;12.184;2023-06-14T12:02:58;28.40;52.60
2893;DHT22;1456;51.840;12.184;2023-06-14T12:05:24;28.00;52.90
2893;DHT22;1456;51.840;12.184;2023-06-14T12:07:58;27.80;53.20
2893;DHT22;1456;51.840;12.184;2023-06-14T12:10:26;27.90;54.00
2893;DHT22;1456;51.840;12.184;2023-06-14T12:12:59;28.10;53.20
2893;DHT22;1456;51.840;12.184;2023-06-14T12:15:28;27.80;54.90
2893;DHT22;1456;51.840;12.184;2023-06-14T12:17:55;27.90;54.90
2893;DHT22;1456;51.840;12.184;2023-06-14T12:20:20;28.10;53.70
2893;DHT22;1456;51.840;12.184;2023-06-14T12:22:54;28.20;55.50
2893;DHT22;1456;51.840;12.184;2023-06-14T12:25:39;28.30;53.10
2893;DHT22;1456;51.840;12.184;2023-06-14T12:28:07;28.10;54.30
2893;DHT22;1456;51.840;12.184;2023-06-14T12:30:36;28.20;53.20
2893;DHT22;1456;51.840;12.184;2023-06-14T12:33:05;28.90;53.10
2893;DHT22;1456;51.840;12.184;2023-06-14T12:35:32;29.70;52.30
2893;DHT22;1456;51.840;12.184;2023-06-14T12:37:58;29.80;51.30
2893;DHT22;1456;51.840;12.184;2023-06-14T12:40:24;29.50;52.80
2893;DHT22;1456;51.840;12.184;2023-06-14T12:42:50;29.00;52.70
2893;DHT22;1456;51.840;12.184;2023-06-14T12:45:16;29.10;51.40
2893;DHT22;1456;51.840;12.184;2023-06-14T12:47:42;28.80;51.30
2893;DHT22;1456;51.840;12.184;2023-06-14T12:50:08;28.80;51.90
2893;DHT22;1456;51.840;12.184;2023-06-14T12:52:34;28.70;52.50
2893;DHT22;1456;51.840;12.184;2023-06-14T12:55:04;28.30;51.60
2893;DHT22;1456;51.840;12.184;2023-06-14T12:57:30;28.30;52.60
2893;DHT22;1456;51.840;12.184;2023-06-14T12:59:56;28.30;52.40
2893;DHT22;1456;51.840;12.184;2023-06-14T13:02:22;30.70;53.60
2893;DHT22;1456;51.840;12.184;2023-06-14T13:04:50;33.60;51.20
2893;DHT22;1456;51.840;12.184;2023-06-14T13:07:16;35.70;49.50
2893;DHT22;1456;51.840;12.184;2023-06-14T13:09:42;36.50;47.60
2893;DHT22;1456;51.840;12.184;2023-06-14T13:12:10;37.50;45.60
2893;DHT22;1456;51.840;12.184;2023-06-14T13:14:40;37.50;43.20
2893;DHT22;1456;51.840;12.184;2023-06-14T13:17:08;36.20;43.70
2893;DHT22;1456;51.840;12.184;2023-06-14T13:19:34;34.80;43.60
2893;DHT22;1456;51.840;12.184;2023-06-14T13:22:00;35.10;45.90
2893;DHT22;1456;51.840;12.184;2023-06-14T13:24:26;36.40;43.70
2893;DHT22;1456;51.840;12.184;2023-06-14T13:26:52;36.00;42.30
2893;DHT22;1456;51.840;12.184;2023-06-14T13:29:17;35.30;43.00
2893;DHT22;1456;51.840;12.184;2023-06-14T13:31:43;33.60;42.40
2893;DHT22;1456;51.840;12.184;2023-06-14T13:34:09;32.30;44.00
2893;DHT22;1456;51.840;12.184;2023-06-14T13:36:34;31.10;44.90
2893;DHT22;1456;51.840;12.184;2023-06-14T13:39:00;30.00;45.80
2893;DHT22;1456;51.840;12.184;2023-06-14T13:41:28;29.40;47.60
2893;DHT22;1456;51.840;12.184;2023-06-14T13:43:58;28.90;46.70
2893;DHT22;1456;51.840;12.184;2023-06-14T13:46:24;28.40;47.10
2893;DHT22;1456;51.840;12.184;2023-06-14T13:48:49;27.90;49.20
2893;DHT22;1456;51.840;12.184;2023-06-14T13:51:15;28.00;49.50
2893;DHT22;1456;51.840;12.184;2023-06-14T13:53:45;28.70;48.10
2893;DHT22;1456;51.840;12.184;2023-06-14T13:56:11;30.60;46.50
2893;DHT22;1456;51.840;12.184;2023-06-14T13:58:37;32.40;47.40
2893;DHT22;1456;51.840;12.184;2023-06-14T14:01:03;34.40;45.60
2893;DHT22;1456;51.840;12.184;2023-06-14T14:03:29;36.50;46.00
2893;DHT22;1456;51.840;12.184;2023-06-14T14:05:54;37.90;43.00
2893;DHT22;1456;51.840;12.184;2023-06-14T14:08:20;38.60;41.20
2893;DHT22;1456;51.840;12.184;2023-06-14T14:10:46;38.80;40.70
2893;DHT22;1456;51.840;12.184;2023-06-14T14:13:12;37.30;39.60
2893;DHT22;1456;51.840;12.184;2023-06-14T14:15:38;37.70;39.50
2893;DHT22;1456;51.840;12.184;2023-06-14T14:18:03;38.50;38.60
2893;DHT22;1456;51.840;12.184;2023-06-14T14:20:31;39.70;38.40
2893;DHT22;1456;51.840;12.184;2023-06-14T14:22:56;40.30;37.80
2893;DHT22;1456;51.840;12.184;2023-06-14T14:25:22;41.10;36.20
2893;DHT22;1456;51.840;12.184;2023-06-14T14:27:48;41.20;35.20
2893;DHT22;1456;51.840;12.184;2023-06-14T14:30:14;40.50;35.30
2893;DHT22;1456;51.840;12.184;2023-06-14T14:32:42;40.70;33.30
2893;DHT22;1456;51.840;12.184;2023-06-14T14:35:09;40.80;35.30
2893;DHT22;1456;51.840;12.184;2023-06-14T14:37:34;40.00;32.80
2893;DHT22;1456;51.840;12.184;2023-06-14T14:40:00;38.90;34.10
2893;DHT22;1456;51.840;12.184;2023-06-14T14:42:26;37.60;33.40
2893;DHT22;1456;51.840;12.184;2023-06-14T14:44:52;35.60;34.90
2893;DHT22;1456;51.840;12.184;2023-06-14T14:47:18;35.70;34.70
2893;DHT22;1456;51.840;12.184;2023-06-14T14:49:43;36.90;34.70
2893;DHT22;1456;51.840;12.184;2023-06-14T14:52:09;37.60;34.50
2893;DHT22;1456;51.840;12.184;2023-06-14T14:54:38;38.40;35.60
2893;DHT22;1456;51.840;12.184;2023-06-14T14:57:04;39.60;34.90
2893;DHT22;1456;51.840;12.184;2023-06-14T14:59:30;40.30;32.30
2893;DHT22;1456;51.840;12.184;2023-06-14T15:01:56;40.70;31.90
2893;DHT22;1456;51.840;12.184;2023-06-14T15:04:22;41.50;32.80
2893;DHT22;1456;51.840;12.184;2023-06-14T15:06:47;41.80;32.40
2893;DHT22;1456;51.840;12.184;2023-06-14T15:09:13;40.00;31.90
2893;DHT22;1456;51.840;12.184;2023-06-14T15:11:40;39.30;32.10
2893;DHT22;1456;51.840;12.184;2023-06-14T15:14:05;38.10;33.20
2893;DHT22;1456;51.840;12.184;2023-06-14T15:16:31;38.10;33.50
2893;DHT22;1456;51.840;12.184;2023-06-14T15:18:57;39.20;33.70
2893;DHT22;1456;51.840;12.184;2023-06-14T15:21:23;40.80;33.80
2893;DHT22;1456;51.840;12.184;2023-06-14T15:23:49;42.00;32.20
2893;DHT22;1456;51.840;12.184;2023-06-14T15:26:16;41.80;31.30
2893;DHT22;1456;51.840;12.184;2023-06-14T15:28:42;42.30;32.20
2893;DHT22;1456;51.840;12.184;2023-06-14T15:31:07;42.60;30.80
2893;DHT22;1456;51.840;12.184;2023-06-14T15:33:34;43.00;32.10
2893;DHT22;1456;51.840;12.184;2023-06-14T15:36:00;39.70;29.20
2893;DHT22;1456;51.840;12.184;2023-06-14T15:38:25;38.20;32.10
2893;DHT22;1456;51.840;12.184;2023-06-14T15:40:51;38.60;34.40
2893;DHT22;1456;51.840;12.184;2023-06-14T15:43:17;40.00;32.00
2893;DHT22;1456;51.840;12.184;2023-06-14T15:45:42;40.00;31.40
2893;DHT22;1456;51.840;12.184;2023-06-14T15:48:09;40.10;32.80
2893;DHT22;1456;51.840;12.184;2023-06-14T15:50:35;39.90;32.00
2893;DHT22;1456;51.840;12.184;2023-06-14T15:53:02;40.10;32.10
2893;DHT22;1456;51.840;12.184;2023-06-14T15:55:28;40.80;30.90
2893;DHT22;1456;51.840;12.184;2023-06-14T15:57:53;41.70;31.20
2893;DHT22;1456;51.840;12.184;2023-06-14T16:00:19;41.90;31.70